METAR AND TAF INFORMATION
METAR FOR CYVO
ADDS - METARS form results

(1016 UTC 21 January 2018)
Data provider http://aviationweather.gov/adds/metars/
 
METAR text: CYVO 211000Z AUTO 00000KT 9SM BKN037 OVC046 M13/M15 A3002 RMK SLP197
Conditions at: CYVO (VAL D'OR AIRPORT, QC, CA) observed 1000 UTC 21 January 2018
Temperature: -13.0°C (9°F)
Dewpoint: -15.0°C (5°F) [RH = 85%]
Pressure (altimeter): 30.02 inches Hg (1016.7 mb)
[Sea-level pressure: 1019.7 mb]
Winds: calm
Visibility: 9 miles (14 km)
Ceiling: 3700 feet AGL
Clouds: broken clouds at 3700 feet AGL
overcast cloud deck at 4600 feet AGL
Weather: no significant weather observed at this time

METAR text: CYVO 210919Z AUTO VRB02KT 9SM OVC050 M14/M15 A3002 RMK SLP198
Conditions at: CYVO (VAL D'OR AIRPORT, QC, CA) observed 0919 UTC 21 January 2018
Temperature: -14.0°C (7°F)
Dewpoint: -15.0°C (5°F) [RH = 92%]
Pressure (altimeter): 30.02 inches Hg (1016.7 mb)
[Sea-level pressure: 1019.8 mb]
Winds: variable direction winds at 2 MPH (2 knots; 1.0 m/s)
Visibility: 9 miles (14 km)
Ceiling: 5000 feet AGL
Clouds: overcast cloud deck at 5000 feet AGL
Weather: no significant weather observed at this time

Forecast for: CYVO (VAL D'OR AIRPORT, QC, CA)
Text: TAF CYVO 210538Z 2106/2118 VRB03KT P6SM SCT020 BKN120
Forecast period: 0600 to 1800 UTC 21 January 2018
Forecast type: FROM: standard forecast or significant change
Winds: variable direction winds at 3 MPH (3 knots; 1.6 m/s)
Visibility: 6 or more miles (10+ km)
Ceiling: 12000 feet AGL
Clouds: scattered clouds at 2000 feet AGL
broken clouds at 12000 feet AGL
Weather: no significant weather forecast for this period
Text: TEMPO 2106/2112 5SM -SN BKN020 OVC120 RMK FCST BASED ON AUTO OBS. NXT FCST BY 211200Z
Forecast period: 0600 to 1200 UTC 21 January 2018
Forecast type: TEMPORARY: The following changes expected for less than half the time period
Visibility: 5 miles (8 km)
Ceiling: 2000 feet AGL
Clouds: broken clouds at 2000 feet AGL
overcast cloud deck at 12000 feet AGL
Weather: -SN  (light snow)

 AIRPORT MAP

 RUNWAY INFORMATION
Runway 18 Runway length 10000 ft Runway width 150 ft
Runway elevation 1102 ft Runway displaced threshold 0 ft Runway heading 169
Runway 36 Runway length 10000 ft Runway width 150 ft
Runway elevation 1100 ft Runway displaced threshold 0 ft Runway heading 349

 AIRPORT FREQUENCIES
Type MF Name Val-d'Or R Frequency 118.5 MHZ
Type PAL Name Montreal C Frequency 125.9 MHZ
Type RADIO Name Val-d'Or R Frequency 118.5 MHZ
Type RCO Name Quebec Rad Frequency 126.7 MHZ

 AIRPORT NEAR NAVIGATION AIDS
Type NDB Name Val-d'Or Frequency 239 KHZ
Type VOR-DME Name Val-d'Or Frequency 113700 KHZ



v2.6.1